Portada
METAR-TAF:

METAR-TAF

Aeroports :

Fort-de-France, Martinica

latitud: 14-36N, longitud: 061-00W, altitud: 5 m

Observació

L'informe es va fer fa 20 minuts, a les 01:30 UTC
Vent 3 kt del Nord-Est, variant entre Nord/Nord-Est i Est
Temperatura 25°C
Humitat 89%
Pressió 1015 hPa
Visibilitat 10 km o més
Núvols disperses a una alçada de 1900 ft
Cel ennuvolat a una alçada de 2500 ft
Cel ennuvolat a una alçada de 4700 ft

METAR: TFFF 230130Z AUTO 05003KT 020V090 9999 SCT019 BKN025 BKN047 25/23 Q1015 NOSIG

Hora: 21:50 (01:50 UTC)

Pronòstic

L'informe es va fer fa 2 hores i 50 minuts, a les 23:00 UTC
Pronòstic vàlid del 23 a les 00 UTC al 23 a les 24 UTC
Vent 10 kt del Est
Visibilitat 10 km o més
Núvols disperses a una alçada de 4000 ft
Probabilitat 30% :
Temporalment
l' 23 a les 06 UTC al 23 a les 10 UTC
Visibilitat: 4000 m
Núvols disperses a una alçada de 1500 ft, Cumulus congestus.
xàfecs de pluja

TAF: TFFF 222300Z 2300/2324 10010KT 9999 SCT040 PROB30 TEMPO 2306/2310 4000 SHRA SCT015TCU

Observacions i pronòstics meteorològics de més de 4000 aeroports (METAR i TAF).

Les estacions disponibles són els punts grocs i vermells al mapa.

Posi el ratolí al punt desitjat per veure el nom de l'estació.

Feu clic per veure les observacions i els pronòstics meteorològics.

Per canviar el mapa: feu clic els botons verds amb una creu de color negre per apropar; al botó verd amb un guió per allunyar la imatge; o en les fletxes verdes per a mapes adjacents.


METAR-TAF: